sensor_id;sensor_type;location;lat;lon;timestamp;temperature;humidity
27492;DHT22;14927;51.210;6.838;2023-05-19T00:02:04;17.30;43.90
27492;DHT22;14927;51.210;6.838;2023-05-19T00:04:52;17.30;44.10
27492;DHT22;14927;51.210;6.838;2023-05-19T00:07:38;17.20;44.10
27492;DHT22;14927;51.210;6.838;2023-05-19T00:10:22;17.20;44.30
27492;DHT22;14927;51.210;6.838;2023-05-19T00:13:07;17.20;44.40
27492;DHT22;14927;51.210;6.838;2023-05-19T00:15:52;17.10;44.40
27492;DHT22;14927;51.210;6.838;2023-05-19T00:18:38;17.10;44.60
27492;DHT22;14927;51.210;6.838;2023-05-19T00:21:23;17.00;44.70
27492;DHT22;14927;51.210;6.838;2023-05-19T00:24:08;17.00;44.90
27492;DHT22;14927;51.210;6.838;2023-05-19T00:26:52;17.00;45.00
27492;DHT22;14927;51.210;6.838;2023-05-19T00:29:37;16.90;45.00
27492;DHT22;14927;51.210;6.838;2023-05-19T00:32:22;16.90;45.20
27492;DHT22;14927;51.210;6.838;2023-05-19T00:35:06;16.90;45.30
27492;DHT22;14927;51.210;6.838;2023-05-19T00:37:51;16.80;45.40
27492;DHT22;14927;51.210;6.838;2023-05-19T00:40:36;16.70;45.70
27492;DHT22;14927;51.210;6.838;2023-05-19T00:43:20;16.70;45.80
27492;DHT22;14927;51.210;6.838;2023-05-19T00:46:05;16.80;45.90
27492;DHT22;14927;51.210;6.838;2023-05-19T00:48:50;16.60;45.90
27492;DHT22;14927;51.210;6.838;2023-05-19T00:51:35;16.60;46.10
27492;DHT22;14927;51.210;6.838;2023-05-19T00:54:20;16.60;46.10
27492;DHT22;14927;51.210;6.838;2023-05-19T00:57:05;16.60;46.30
27492;DHT22;14927;51.210;6.838;2023-05-19T00:59:49;16.50;46.30
27492;DHT22;14927;51.210;6.838;2023-05-19T01:02:35;16.50;46.40
27492;DHT22;14927;51.210;6.838;2023-05-19T01:05:21;16.40;46.50
27492;DHT22;14927;51.210;6.838;2023-05-19T01:08:07;16.60;46.70
27492;DHT22;14927;51.210;6.838;2023-05-19T01:10:51;16.40;47.40
27492;DHT22;14927;51.210;6.838;2023-05-19T01:13:37;16.30;46.90
27492;DHT22;14927;51.210;6.838;2023-05-19T01:16:30;16.30;47.00
27492;DHT22;14927;51.210;6.838;2023-05-19T01:29:19;16.00;47.80
27492;DHT22;14927;51.210;6.838;2023-05-19T01:32:19;16.00;48.20
27492;DHT22;14927;51.210;6.838;2023-05-19T01:35:08;15.90;47.80
27492;DHT22;14927;51.210;6.838;2023-05-19T01:37:55;15.90;48.10
27492;DHT22;14927;51.210;6.838;2023-05-19T01:40:42;15.80;48.20
27492;DHT22;14927;51.210;6.838;2023-05-19T01:43:28;15.80;48.40
27492;DHT22;14927;51.210;6.838;2023-05-19T01:46:14;15.70;48.50
27492;DHT22;14927;51.210;6.838;2023-05-19T01:48:59;15.90;48.80
27492;DHT22;14927;51.210;6.838;2023-05-19T01:51:44;15.70;48.90
27492;DHT22;14927;51.210;6.838;2023-05-19T01:54:29;15.60;48.90
27492;DHT22;14927;51.210;6.838;2023-05-19T01:57:49;15.60;49.10
27492;DHT22;14927;51.210;6.838;2023-05-19T02:01:02;15.50;49.90
27492;DHT22;14927;51.210;6.838;2023-05-19T02:10:09;15.40;50.00
27492;DHT22;14927;51.210;6.838;2023-05-19T02:13:00;15.30;49.70
27492;DHT22;14927;51.210;6.838;2023-05-19T02:15:47;15.30;50.00
27492;DHT22;14927;51.210;6.838;2023-05-19T02:18:32;15.20;50.00
27492;DHT22;14927;51.210;6.838;2023-05-19T02:21:18;15.20;50.20
27492;DHT22;14927;51.210;6.838;2023-05-19T02:24:03;15.10;50.30
27492;DHT22;14927;51.210;6.838;2023-05-19T02:26:49;15.10;50.40
27492;DHT22;14927;51.210;6.838;2023-05-19T02:29:34;15.10;50.50
27492;DHT22;14927;51.210;6.838;2023-05-19T02:32:19;15.40;50.90
27492;DHT22;14927;51.210;6.838;2023-05-19T02:35:04;15.00;50.90
27492;DHT22;14927;51.210;6.838;2023-05-19T02:37:49;15.00;50.80
27492;DHT22;14927;51.210;6.838;2023-05-19T02:40:34;15.10;50.90
27492;DHT22;14927;51.210;6.838;2023-05-19T02:43:19;15.00;50.90
27492;DHT22;14927;51.210;6.838;2023-05-19T02:46:03;15.00;51.00
27492;DHT22;14927;51.210;6.838;2023-05-19T02:48:49;15.00;51.00
27492;DHT22;14927;51.210;6.838;2023-05-19T02:51:34;14.90;51.10
27492;DHT22;14927;51.210;6.838;2023-05-19T02:54:18;14.90;51.20
27492;DHT22;14927;51.210;6.838;2023-05-19T02:57:03;14.80;51.30
27492;DHT22;14927;51.210;6.838;2023-05-19T02:59:47;14.80;51.20
27492;DHT22;14927;51.210;6.838;2023-05-19T03:02:32;15.00;51.50
27492;DHT22;14927;51.210;6.838;2023-05-19T03:05:17;14.70;51.50
27492;DHT22;14927;51.210;6.838;2023-05-19T03:08:03;14.70;51.60
27492;DHT22;14927;51.210;6.838;2023-05-19T03:10:47;14.60;51.60
27492;DHT22;14927;51.210;6.838;2023-05-19T03:13:32;14.60;51.70
27492;DHT22;14927;51.210;6.838;2023-05-19T03:16:16;14.60;51.80
27492;DHT22;14927;51.210;6.838;2023-05-19T03:19:01;14.50;51.90
27492;DHT22;14927;51.210;6.838;2023-05-19T03:21:45;14.50;52.00
27492;DHT22;14927;51.210;6.838;2023-05-19T03:24:30;14.40;52.10
27492;DHT22;14927;51.210;6.838;2023-05-19T03:27:15;14.40;52.20
27492;DHT22;14927;51.210;6.838;2023-05-19T03:30:00;14.40;52.30
27492;DHT22;14927;51.210;6.838;2023-05-19T03:32:44;14.30;52.40
27492;DHT22;14927;51.210;6.838;2023-05-19T03:35:29;14.30;52.50
27492;DHT22;14927;51.210;6.838;2023-05-19T03:38:14;14.30;52.60
27492;DHT22;14927;51.210;6.838;2023-05-19T03:40:58;14.30;52.60
27492;DHT22;14927;51.210;6.838;2023-05-19T03:43:43;14.30;52.70
27492;DHT22;14927;51.210;6.838;2023-05-19T03:46:28;14.30;53.40
27492;DHT22;14927;51.210;6.838;2023-05-19T03:49:13;14.20;52.70
27492;DHT22;14927;51.210;6.838;2023-05-19T03:51:58;14.30;52.80
27492;DHT22;14927;51.210;6.838;2023-05-19T03:54:42;14.30;52.80
27492;DHT22;14927;51.210;6.838;2023-05-19T03:57:27;14.20;52.90
27492;DHT22;14927;51.210;6.838;2023-05-19T04:00:12;14.20;52.90
27492;DHT22;14927;51.210;6.838;2023-05-19T04:02:58;14.20;52.90
27492;DHT22;14927;51.210;6.838;2023-05-19T04:05:43;14.20;53.00
27492;DHT22;14927;51.210;6.838;2023-05-19T04:08:28;14.30;53.10
27492;DHT22;14927;51.210;6.838;2023-05-19T04:11:12;14.10;53.10
27492;DHT22;14927;51.210;6.838;2023-05-19T04:13:57;14.10;53.20
27492;DHT22;14927;51.210;6.838;2023-05-19T04:16:42;14.10;53.30
27492;DHT22;14927;51.210;6.838;2023-05-19T04:19:26;14.30;53.40
27492;DHT22;14927;51.210;6.838;2023-05-19T04:22:11;14.20;53.30
27492;DHT22;14927;51.210;6.838;2023-05-19T04:24:55;14.10;53.20
27492;DHT22;14927;51.210;6.838;2023-05-19T04:27:40;14.10;53.30
27492;DHT22;14927;51.210;6.838;2023-05-19T04:30:25;14.20;53.40
27492;DHT22;14927;51.210;6.838;2023-05-19T04:33:11;14.10;53.30
27492;DHT22;14927;51.210;6.838;2023-05-19T04:35:56;14.10;53.30
27492;DHT22;14927;51.210;6.838;2023-05-19T04:38:41;14.30;53.30
27492;DHT22;14927;51.210;6.838;2023-05-19T04:41:25;14.20;53.30
27492;DHT22;14927;51.210;6.838;2023-05-19T04:44:10;14.20;53.40
27492;DHT22;14927;51.210;6.838;2023-05-19T04:46:56;14.20;53.50
27492;DHT22;14927;51.210;6.838;2023-05-19T04:49:41;14.20;53.30
27492;DHT22;14927;51.210;6.838;2023-05-19T04:52:26;14.30;53.30
27492;DHT22;14927;51.210;6.838;2023-05-19T04:55:11;14.30;53.30
27492;DHT22;14927;51.210;6.838;2023-05-19T04:57:56;14.40;53.20
27492;DHT22;14927;51.210;6.838;2023-05-19T05:00:41;14.40;53.10
27492;DHT22;14927;51.210;6.838;2023-05-19T05:03:25;14.50;53.00
27492;DHT22;14927;51.210;6.838;2023-05-19T05:06:10;14.50;53.00
27492;DHT22;14927;51.210;6.838;2023-05-19T05:08:55;14.60;53.00
27492;DHT22;14927;51.210;6.838;2023-05-19T05:11:40;14.60;53.00
27492;DHT22;14927;51.210;6.838;2023-05-19T05:14:25;14.70;53.10
27492;DHT22;14927;51.210;6.838;2023-05-19T05:17:11;14.70;53.00
27492;DHT22;14927;51.210;6.838;2023-05-19T05:19:57;14.70;53.10
27492;DHT22;14927;51.210;6.838;2023-05-19T05:22:42;14.80;53.10
27492;DHT22;14927;51.210;6.838;2023-05-19T05:25:27;14.90;53.00
27492;DHT22;14927;51.210;6.838;2023-05-19T05:28:12;14.90;52.90
27492;DHT22;14927;51.210;6.838;2023-05-19T05:30:56;15.00;53.00
27492;DHT22;14927;51.210;6.838;2023-05-19T05:33:41;15.00;52.90
27492;DHT22;14927;51.210;6.838;2023-05-19T05:36:26;15.10;52.90
27492;DHT22;14927;51.210;6.838;2023-05-19T05:39:11;15.10;52.90
27492;DHT22;14927;51.210;6.838;2023-05-19T05:41:56;15.20;52.80
27492;DHT22;14927;51.210;6.838;2023-05-19T05:44:41;15.30;52.80
27492;DHT22;14927;51.210;6.838;2023-05-19T05:47:26;15.30;52.70
27492;DHT22;14927;51.210;6.838;2023-05-19T05:50:11;15.40;52.70
27492;DHT22;14927;51.210;6.838;2023-05-19T05:52:57;15.50;52.90
27492;DHT22;14927;51.210;6.838;2023-05-19T05:55:47;15.50;52.80
27492;DHT22;14927;51.210;6.838;2023-05-19T05:58:32;15.70;52.60
27492;DHT22;14927;51.210;6.838;2023-05-19T06:01:18;15.70;52.40
27492;DHT22;14927;51.210;6.838;2023-05-19T06:04:03;15.80;52.40
27492;DHT22;14927;51.210;6.838;2023-05-19T06:06:48;15.90;52.50
27492;DHT22;14927;51.210;6.838;2023-05-19T06:09:33;15.90;52.20
27492;DHT22;14927;51.210;6.838;2023-05-19T06:12:18;16.00;51.90
27492;DHT22;14927;51.210;6.838;2023-05-19T06:15:03;16.10;51.80
27492;DHT22;14927;51.210;6.838;2023-05-19T06:17:47;16.20;51.40
27492;DHT22;14927;51.210;6.838;2023-05-19T06:20:32;16.20;51.10
27492;DHT22;14927;51.210;6.838;2023-05-19T06:23:16;16.30;50.80
27492;DHT22;14927;51.210;6.838;2023-05-19T06:26:01;16.40;50.40
27492;DHT22;14927;51.210;6.838;2023-05-19T06:28:46;16.50;50.10
27492;DHT22;14927;51.210;6.838;2023-05-19T06:31:30;16.60;49.90
27492;DHT22;14927;51.210;6.838;2023-05-19T06:34:16;16.70;49.70
27492;DHT22;14927;51.210;6.838;2023-05-19T06:37:01;16.80;49.40
27492;DHT22;14927;51.210;6.838;2023-05-19T06:39:45;16.80;49.10
27492;DHT22;14927;51.210;6.838;2023-05-19T06:42:30;16.90;48.70
27492;DHT22;14927;51.210;6.838;2023-05-19T06:45:15;17.00;48.60
27492;DHT22;14927;51.210;6.838;2023-05-19T06:47:59;17.10;48.40
27492;DHT22;14927;51.210;6.838;2023-05-19T06:50:44;17.20;48.30
27492;DHT22;14927;51.210;6.838;2023-05-19T06:53:29;17.30;48.20
27492;DHT22;14927;51.210;6.838;2023-05-19T06:56:14;17.30;47.70
27492;DHT22;14927;51.210;6.838;2023-05-19T06:58:59;17.60;47.50
27492;DHT22;14927;51.210;6.838;2023-05-19T07:01:43;17.80;47.40
27492;DHT22;14927;51.210;6.838;2023-05-19T07:04:28;17.60;47.60
27492;DHT22;14927;51.210;6.838;2023-05-19T07:07:13;17.50;46.80
27492;DHT22;14927;51.210;6.838;2023-05-19T07:09:57;17.70;46.70
27492;DHT22;14927;51.210;6.838;2023-05-19T07:12:42;17.80;46.50
27492;DHT22;14927;51.210;6.838;2023-05-19T07:15:27;17.90;46.30
27492;DHT22;14927;51.210;6.838;2023-05-19T07:18:11;18.00;46.10
27492;DHT22;14927;51.210;6.838;2023-05-19T07:20:56;18.10;45.90
27492;DHT22;14927;51.210;6.838;2023-05-19T07:23:41;18.20;45.70
27492;DHT22;14927;51.210;6.838;2023-05-19T07:26:26;18.20;45.60
27492;DHT22;14927;51.210;6.838;2023-05-19T07:29:11;18.30;45.30
27492;DHT22;14927;51.210;6.838;2023-05-19T07:31:56;18.40;45.00
27492;DHT22;14927;51.210;6.838;2023-05-19T07:34:40;18.50;44.80
27492;DHT22;14927;51.210;6.838;2023-05-19T07:37:25;18.60;44.40
27492;DHT22;14927;51.210;6.838;2023-05-19T07:40:10;18.60;44.40
27492;DHT22;14927;51.210;6.838;2023-05-19T07:42:54;18.70;44.20
27492;DHT22;14927;51.210;6.838;2023-05-19T07:45:39;18.70;43.80
27492;DHT22;14927;51.210;6.838;2023-05-19T07:48:24;18.80;43.80
27492;DHT22;14927;51.210;6.838;2023-05-19T07:51:10;18.90;44.20
27492;DHT22;14927;51.210;6.838;2023-05-19T07:53:55;19.00;43.30
27492;DHT22;14927;51.210;6.838;2023-05-19T07:56:40;19.00;43.30
27492;DHT22;14927;51.210;6.838;2023-05-19T07:59:25;19.00;43.00
27492;DHT22;14927;51.210;6.838;2023-05-19T08:02:09;19.10;42.80
27492;DHT22;14927;51.210;6.838;2023-05-19T08:04:54;19.20;42.60
27492;DHT22;14927;51.210;6.838;2023-05-19T08:07:39;19.30;42.60
27492;DHT22;14927;51.210;6.838;2023-05-19T08:10:24;19.30;42.40
27492;DHT22;14927;51.210;6.838;2023-05-19T08:13:08;19.40;42.10
27492;DHT22;14927;51.210;6.838;2023-05-19T08:15:53;19.50;42.20
27492;DHT22;14927;51.210;6.838;2023-05-19T08:18:43;19.50;41.90
27492;DHT22;14927;51.210;6.838;2023-05-19T08:21:28;19.60;42.30
27492;DHT22;14927;51.210;6.838;2023-05-19T08:24:12;19.70;41.80
27492;DHT22;14927;51.210;6.838;2023-05-19T08:26:57;19.70;41.20
27492;DHT22;14927;51.210;6.838;2023-05-19T08:29:42;19.80;40.80
27492;DHT22;14927;51.210;6.838;2023-05-19T08:32:26;19.80;40.50
27492;DHT22;14927;51.210;6.838;2023-05-19T08:35:11;19.90;40.30
27492;DHT22;14927;51.210;6.838;2023-05-19T08:37:56;20.00;40.30
27492;DHT22;14927;51.210;6.838;2023-05-19T08:40:41;20.00;39.90
27492;DHT22;14927;51.210;6.838;2023-05-19T08:43:26;20.10;39.50
27492;DHT22;14927;51.210;6.838;2023-05-19T08:46:12;20.10;39.40
27492;DHT22;14927;51.210;6.838;2023-05-19T08:49:04;20.20;39.40
27492;DHT22;14927;51.210;6.838;2023-05-19T08:58:10;20.50;39.10
27492;DHT22;14927;51.210;6.838;2023-05-19T09:01:27;20.50;38.80
27492;DHT22;14927;51.210;6.838;2023-05-19T09:04:15;20.60;38.20
27492;DHT22;14927;51.210;6.838;2023-05-19T09:07:00;20.60;38.30
27492;DHT22;14927;51.210;6.838;2023-05-19T09:09:46;20.70;38.20
27492;DHT22;14927;51.210;6.838;2023-05-19T09:12:32;20.80;38.20
27492;DHT22;14927;51.210;6.838;2023-05-19T09:15:18;20.80;37.90
27492;DHT22;14927;51.210;6.838;2023-05-19T09:18:13;20.90;37.70
27492;DHT22;14927;51.210;6.838;2023-05-19T09:21:08;20.90;36.90
27492;DHT22;14927;51.210;6.838;2023-05-19T09:23:54;21.20;38.00
27492;DHT22;14927;51.210;6.838;2023-05-19T09:26:42;21.00;38.00
27492;DHT22;14927;51.210;6.838;2023-05-19T09:29:26;21.10;37.00
27492;DHT22;14927;51.210;6.838;2023-05-19T09:32:11;21.20;37.30
27492;DHT22;14927;51.210;6.838;2023-05-19T09:34:55;21.20;37.10
27492;DHT22;14927;51.210;6.838;2023-05-19T09:37:40;21.30;36.60
27492;DHT22;14927;51.210;6.838;2023-05-19T09:40:29;21.40;36.60
27492;DHT22;14927;51.210;6.838;2023-05-19T09:43:15;21.40;36.00
27492;DHT22;14927;51.210;6.838;2023-05-19T09:46:08;21.50;36.30
27492;DHT22;14927;51.210;6.838;2023-05-19T09:48:57;21.50;35.50
27492;DHT22;14927;51.210;6.838;2023-05-19T09:51:41;21.60;35.90
27492;DHT22;14927;51.210;6.838;2023-05-19T09:54:26;21.70;35.90
27492;DHT22;14927;51.210;6.838;2023-05-19T09:57:11;21.70;35.50
27492;DHT22;14927;51.210;6.838;2023-05-19T09:59:57;21.80;35.80
27492;DHT22;14927;51.210;6.838;2023-05-19T10:02:45;21.90;35.40
27492;DHT22;14927;51.210;6.838;2023-05-19T10:05:32;21.90;35.40
27492;DHT22;14927;51.210;6.838;2023-05-19T10:08:16;22.00;35.30
27492;DHT22;14927;51.210;6.838;2023-05-19T10:11:01;22.10;35.00
27492;DHT22;14927;51.210;6.838;2023-05-19T10:13:51;22.10;34.60
27492;DHT22;14927;51.210;6.838;2023-05-19T10:16:36;22.20;34.30
27492;DHT22;14927;51.210;6.838;2023-05-19T10:19:23;22.20;34.50
27492;DHT22;14927;51.210;6.838;2023-05-19T10:22:08;22.30;34.40
27492;DHT22;14927;51.210;6.838;2023-05-19T10:24:53;22.30;34.50
27492;DHT22;14927;51.210;6.838;2023-05-19T10:27:57;22.40;34.30
27492;DHT22;14927;51.210;6.838;2023-05-19T10:30:47;22.50;33.80
27492;DHT22;14927;51.210;6.838;2023-05-19T10:36:47;22.50;33.60
27492;DHT22;14927;51.210;6.838;2023-05-19T10:39:33;22.70;33.30
27492;DHT22;14927;51.210;6.838;2023-05-19T10:42:43;22.70;33.40
27492;DHT22;14927;51.210;6.838;2023-05-19T10:45:35;22.80;32.70
27492;DHT22;14927;51.210;6.838;2023-05-19T10:48:34;22.80;33.30
27492;DHT22;14927;51.210;6.838;2023-05-19T10:51:19;22.90;33.40
27492;DHT22;14927;51.210;6.838;2023-05-19T10:54:07;22.90;33.30
27492;DHT22;14927;51.210;6.838;2023-05-19T10:56:56;23.00;33.50
27492;DHT22;14927;51.210;6.838;2023-05-19T10:59:40;23.10;33.30
27492;DHT22;14927;51.210;6.838;2023-05-19T11:02:40;23.10;33.20
27492;DHT22;14927;51.210;6.838;2023-05-19T11:05:29;23.20;32.10
27492;DHT22;14927;51.210;6.838;2023-05-19T11:08:14;23.30;32.40
27492;DHT22;14927;51.210;6.838;2023-05-19T11:11:13;23.30;32.60
27492;DHT22;14927;51.210;6.838;2023-05-19T11:13:59;23.40;32.80
27492;DHT22;14927;51.210;6.838;2023-05-19T11:16:48;23.40;33.60
27492;DHT22;14927;51.210;6.838;2023-05-19T11:19:34;23.50;32.90
27492;DHT22;14927;51.210;6.838;2023-05-19T11:22:22;23.60;33.50
27492;DHT22;14927;51.210;6.838;2023-05-19T11:25:08;23.60;33.00
27492;DHT22;14927;51.210;6.838;2023-05-19T11:27:53;23.70;32.60
27492;DHT22;14927;51.210;6.838;2023-05-19T11:30:43;23.80;32.30
27492;DHT22;14927;51.210;6.838;2023-05-19T11:33:28;23.90;32.10
27492;DHT22;14927;51.210;6.838;2023-05-19T11:36:16;24.00;32.20
27492;DHT22;14927;51.210;6.838;2023-05-19T11:39:01;24.10;32.00
27492;DHT22;14927;51.210;6.838;2023-05-19T11:41:46;24.20;31.90
27492;DHT22;14927;51.210;6.838;2023-05-19T11:44:31;24.40;31.60
27492;DHT22;14927;51.210;6.838;2023-05-19T11:47:16;24.50;32.00
27492;DHT22;14927;51.210;6.838;2023-05-19T11:50:00;24.60;30.90
27492;DHT22;14927;51.210;6.838;2023-05-19T11:52:45;24.70;31.00
27492;DHT22;14927;51.210;6.838;2023-05-19T11:55:30;24.80;30.40
27492;DHT22;14927;51.210;6.838;2023-05-19T11:58:15;25.00;30.00
27492;DHT22;14927;51.210;6.838;2023-05-19T12:01:03;25.10;30.10
27492;DHT22;14927;51.210;6.838;2023-05-19T12:03:48;25.20;30.50
27492;DHT22;14927;51.210;6.838;2023-05-19T12:06:33;25.30;30.50
27492;DHT22;14927;51.210;6.838;2023-05-19T12:09:18;25.50;30.30
27492;DHT22;14927;51.210;6.838;2023-05-19T12:12:06;25.60;30.50
27492;DHT22;14927;51.210;6.838;2023-05-19T12:14:51;25.80;30.70
27492;DHT22;14927;51.210;6.838;2023-05-19T12:17:36;25.90;31.10
27492;DHT22;14927;51.210;6.838;2023-05-19T12:20:22;26.10;30.00
27492;DHT22;14927;51.210;6.838;2023-05-19T12:23:06;26.30;29.40
27492;DHT22;14927;51.210;6.838;2023-05-19T12:25:52;26.40;29.50
27492;DHT22;14927;51.210;6.838;2023-05-19T12:28:36;26.60;29.10
27492;DHT22;14927;51.210;6.838;2023-05-19T12:31:21;26.80;29.20
27492;DHT22;14927;51.210;6.838;2023-05-19T12:34:08;26.90;28.70
27492;DHT22;14927;51.210;6.838;2023-05-19T12:36:56;27.10;29.00
27492;DHT22;14927;51.210;6.838;2023-05-19T12:39:41;27.30;29.00
27492;DHT22;14927;51.210;6.838;2023-05-19T12:42:26;27.50;28.10
27492;DHT22;14927;51.210;6.838;2023-05-19T12:45:14;27.70;27.80
27492;DHT22;14927;51.210;6.838;2023-05-19T12:48:04;27.80;28.00
27492;DHT22;14927;51.210;6.838;2023-05-19T12:50:53;28.00;28.50
27492;DHT22;14927;51.210;6.838;2023-05-19T12:53:38;28.20;27.30
27492;DHT22;14927;51.210;6.838;2023-05-19T12:56:24;28.40;27.60
27492;DHT22;14927;51.210;6.838;2023-05-19T12:59:10;28.60;27.50
27492;DHT22;14927;51.210;6.838;2023-05-19T13:01:58;28.70;27.50
27492;DHT22;14927;51.210;6.838;2023-05-19T13:04:42;28.90;26.70
27492;DHT22;14927;51.210;6.838;2023-05-19T13:07:27;29.10;26.90
27492;DHT22;14927;51.210;6.838;2023-05-19T13:10:12;29.30;26.80
27492;DHT22;14927;51.210;6.838;2023-05-19T13:12:58;29.50;26.70
27492;DHT22;14927;51.210;6.838;2023-05-19T13:15:45;29.70;26.10
27492;DHT22;14927;51.210;6.838;2023-05-19T13:18:31;29.90;25.40
27492;DHT22;14927;51.210;6.838;2023-05-19T13:21:18;30.10;25.40
27492;DHT22;14927;51.210;6.838;2023-05-19T13:24:04;30.30;25.30
27492;DHT22;14927;51.210;6.838;2023-05-19T13:26:49;30.40;25.30
27492;DHT22;14927;51.210;6.838;2023-05-19T13:29:34;30.70;24.80
27492;DHT22;14927;51.210;6.838;2023-05-19T13:32:19;30.90;24.80
27492;DHT22;14927;51.210;6.838;2023-05-19T13:35:04;31.10;24.40
27492;DHT22;14927;51.210;6.838;2023-05-19T13:37:49;31.30;24.00
27492;DHT22;14927;51.210;6.838;2023-05-19T13:40:34;31.50;24.00
27492;DHT22;14927;51.210;6.838;2023-05-19T13:43:19;31.80;24.10
27492;DHT22;14927;51.210;6.838;2023-05-19T13:46:04;31.90;23.80
27492;DHT22;14927;51.210;6.838;2023-05-19T13:48:49;32.10;24.00
27492;DHT22;14927;51.210;6.838;2023-05-19T13:51:34;32.30;23.50
27492;DHT22;14927;51.210;6.838;2023-05-19T13:54:18;32.60;23.30
27492;DHT22;14927;51.210;6.838;2023-05-19T13:57:03;32.70;22.90
27492;DHT22;14927;51.210;6.838;2023-05-19T13:59:49;32.90;22.70
27492;DHT22;14927;51.210;6.838;2023-05-19T14:02:33;33.10;22.30
27492;DHT22;14927;51.210;6.838;2023-05-19T14:05:19;33.20;22.00
27492;DHT22;14927;51.210;6.838;2023-05-19T14:08:04;33.30;21.80
27492;DHT22;14927;51.210;6.838;2023-05-19T14:10:49;33.30;21.70
27492;DHT22;14927;51.210;6.838;2023-05-19T14:13:34;33.30;21.60
27492;DHT22;14927;51.210;6.838;2023-05-19T14:16:18;33.30;21.60
27492;DHT22;14927;51.210;6.838;2023-05-19T14:19:04;33.20;21.50
27492;DHT22;14927;51.210;6.838;2023-05-19T14:21:49;33.10;21.60
27492;DHT22;14927;51.210;6.838;2023-05-19T14:24:34;33.00;21.50
27492;DHT22;14927;51.210;6.838;2023-05-19T14:27:19;32.80;21.20
27492;DHT22;14927;51.210;6.838;2023-05-19T14:30:04;32.70;21.30
27492;DHT22;14927;51.210;6.838;2023-05-19T14:32:49;32.60;21.50
27492;DHT22;14927;51.210;6.838;2023-05-19T14:35:33;32.50;21.50
27492;DHT22;14927;51.210;6.838;2023-05-19T14:38:18;32.40;21.50
27492;DHT22;14927;51.210;6.838;2023-05-19T14:41:02;32.30;21.40
27492;DHT22;14927;51.210;6.838;2023-05-19T14:43:47;32.10;21.20
27492;DHT22;14927;51.210;6.838;2023-05-19T14:46:32;32.00;21.50
27492;DHT22;14927;51.210;6.838;2023-05-19T14:49:16;31.80;21.70
27492;DHT22;14927;51.210;6.838;2023-05-19T14:52:01;31.60;21.70
27492;DHT22;14927;51.210;6.838;2023-05-19T14:54:46;31.40;21.90
27492;DHT22;14927;51.210;6.838;2023-05-19T14:57:31;31.30;21.90
27492;DHT22;14927;51.210;6.838;2023-05-19T15:00:15;31.20;21.90
27492;DHT22;14927;51.210;6.838;2023-05-19T15:03:00;31.00;21.80
27492;DHT22;14927;51.210;6.838;2023-05-19T15:05:45;30.90;22.10
27492;DHT22;14927;51.210;6.838;2023-05-19T15:08:30;30.80;22.00
27492;DHT22;14927;51.210;6.838;2023-05-19T15:11:14;30.60;22.10
27492;DHT22;14927;51.210;6.838;2023-05-19T15:13:59;30.50;22.20
27492;DHT22;14927;51.210;6.838;2023-05-19T15:16:43;30.30;22.40
27492;DHT22;14927;51.210;6.838;2023-05-19T15:19:28;30.20;22.50
27492;DHT22;14927;51.210;6.838;2023-05-19T15:22:12;30.10;23.00
27492;DHT22;14927;51.210;6.838;2023-05-19T15:24:57;30.00;23.10
27492;DHT22;14927;51.210;6.838;2023-05-19T15:27:42;30.00;22.90
27492;DHT22;14927;51.210;6.838;2023-05-19T15:30:26;29.90;22.80
27492;DHT22;14927;51.210;6.838;2023-05-19T15:33:11;29.90;22.70
27492;DHT22;14927;51.210;6.838;2023-05-19T15:35:56;29.80;22.70
27492;DHT22;14927;51.210;6.838;2023-05-19T15:38:40;29.80;22.80
27492;DHT22;14927;51.210;6.838;2023-05-19T15:41:25;29.80;23.00
27492;DHT22;14927;51.210;6.838;2023-05-19T15:44:09;29.80;22.90
27492;DHT22;14927;51.210;6.838;2023-05-19T15:46:54;29.70;22.60
27492;DHT22;14927;51.210;6.838;2023-05-19T15:49:39;29.70;22.60
27492;DHT22;14927;51.210;6.838;2023-05-19T15:52:24;29.60;22.60
27492;DHT22;14927;51.210;6.838;2023-05-19T15:55:08;29.60;22.60
27492;DHT22;14927;51.210;6.838;2023-05-19T15:57:53;29.50;22.50
27492;DHT22;14927;51.210;6.838;2023-05-19T16:00:38;29.40;22.50
27492;DHT22;14927;51.210;6.838;2023-05-19T16:03:23;29.40;22.70
27492;DHT22;14927;51.210;6.838;2023-05-19T16:06:07;29.30;22.70
27492;DHT22;14927;51.210;6.838;2023-05-19T16:08:52;29.30;23.00
27492;DHT22;14927;51.210;6.838;2023-05-19T16:11:36;29.30;22.90
27492;DHT22;14927;51.210;6.838;2023-05-19T16:14:21;29.30;22.80
27492;DHT22;14927;51.210;6.838;2023-05-19T16:17:06;29.30;23.30
27492;DHT22;14927;51.210;6.838;2023-05-19T16:19:54;29.20;23.00
27492;DHT22;14927;51.210;6.838;2023-05-19T16:22:38;29.20;23.10
27492;DHT22;14927;51.210;6.838;2023-05-19T16:25:23;29.30;23.10
27492;DHT22;14927;51.210;6.838;2023-05-19T16:28:08;29.30;22.90
27492;DHT22;14927;51.210;6.838;2023-05-19T16:30:56;29.40;22.80
27492;DHT22;14927;51.210;6.838;2023-05-19T16:33:42;29.50;22.80
27492;DHT22;14927;51.210;6.838;2023-05-19T16:36:27;29.60;22.90
27492;DHT22;14927;51.210;6.838;2023-05-19T16:39:11;29.70;22.70
27492;DHT22;14927;51.210;6.838;2023-05-19T16:41:56;29.90;22.80
27492;DHT22;14927;51.210;6.838;2023-05-19T16:44:41;30.00;22.60
27492;DHT22;14927;51.210;6.838;2023-05-19T16:47:26;30.20;22.50
27492;DHT22;14927;51.210;6.838;2023-05-19T16:50:10;30.40;22.10
27492;DHT22;14927;51.210;6.838;2023-05-19T16:52:56;30.70;22.10
27492;DHT22;14927;51.210;6.838;2023-05-19T16:55:40;30.80;22.00
27492;DHT22;14927;51.210;6.838;2023-05-19T16:58:25;31.10;21.80
27492;DHT22;14927;51.210;6.838;2023-05-19T17:01:09;31.30;21.70
27492;DHT22;14927;51.210;6.838;2023-05-19T17:03:54;31.50;21.60
27492;DHT22;14927;51.210;6.838;2023-05-19T17:06:39;31.70;21.20
27492;DHT22;14927;51.210;6.838;2023-05-19T17:09:24;31.90;20.80
27492;DHT22;14927;51.210;6.838;2023-05-19T17:12:09;32.00;20.40
27492;DHT22;14927;51.210;6.838;2023-05-19T17:14:54;32.20;20.70
27492;DHT22;14927;51.210;6.838;2023-05-19T17:17:38;32.30;20.60
27492;DHT22;14927;51.210;6.838;2023-05-19T17:20:23;32.40;20.10
27492;DHT22;14927;51.210;6.838;2023-05-19T17:23:07;32.40;20.10
27492;DHT22;14927;51.210;6.838;2023-05-19T17:25:55;32.50;20.00
27492;DHT22;14927;51.210;6.838;2023-05-19T17:28:40;32.60;19.80
27492;DHT22;14927;51.210;6.838;2023-05-19T17:31:25;32.60;20.10
27492;DHT22;14927;51.210;6.838;2023-05-19T17:34:09;32.60;19.90
27492;DHT22;14927;51.210;6.838;2023-05-19T17:36:54;32.70;19.90
27492;DHT22;14927;51.210;6.838;2023-05-19T17:39:39;32.60;19.70
27492;DHT22;14927;51.210;6.838;2023-05-19T17:42:23;32.70;19.80
27492;DHT22;14927;51.210;6.838;2023-05-19T17:45:08;32.70;19.70
27492;DHT22;14927;51.210;6.838;2023-05-19T17:47:55;32.70;19.70
27492;DHT22;14927;51.210;6.838;2023-05-19T17:50:40;32.70;19.50
27492;DHT22;14927;51.210;6.838;2023-05-19T17:53:25;32.70;19.50